Ana Sayfa
METAR-TAF:

METAR-TAF

Havaalanları :

South Alabama Regional Airport

Andalusia, Alabama, Amerika Birleşik Devletleri

Enlem: 31-18-00N, Boylam: 086-23-00W, yükseklik: 94 m

Güncel hava durumu gözlemi

Rapor saat 16:56 UTC de 54 dakika önce yapıldı.
Rüzgar batı/kuzeybatıdan 6 kt
Sıcaklık 36°C
Nem 47%
Basınç 1015 hPa
Görüş mesafesi: 16.1 km
4000 ft yükseklikte az bulutlu
6500 ft yükseklikte parçalı bulutlu
8000 ft yükseklikte parçalı bulutlu

METAR: K79J 251656Z AUTO 29006KT 10SM FEW040 SCT065 SCT080 36/23 A2996 RMK AO2 SLP138 T03560233 TSNO

Saat: 12:50 (17:50 UTC)


TAF: eksik

4.000'den fazla havaalanı için hava durumu gözlemleri ve tahminleri (METAR ve TAF raporları).

Kullanılabilir istasyonlar harita üzerinde sarı ve kırmızı noktalarla gösterilir.

İstasyonun adını görmek için fareyi noktanın üzerinde gezdirin.

Sonrasında hava gözlem ve tahminlerini görmek için tıklayın.

Haritayı değiştirmek için: yaklaştırmak için siyah artı işaretli yeşil düğmeye ve uzaklaştırmak için de eksi işaretli düğmeye hızla tıklayın; bitişik haritalar için yeşil okları kullanın.


METAR-TAF: